Terminal Aerodrome Forecast
Issued by NWS

Home | Current Version | Previous Version | Text Only | Print | Product List | Glossary On
Versions: 1 2 3 4 5 6 7 8 9 10 11 12 13 14 15 16
506
FTUS45 KTFX 221341 AAA
TAFLWT
TAF AMD
KLWT 221341Z 2214/2312 06008KT P6SM VCSH SCT008 BKN030
      TEMPO 2215/2218 4SM -SHSNRA BR BKN012
     FM221800 07007KT 4SM -RASN BR SCT008 BKN020
     FM230000 05006KT P6SM -SHSNRA SCT010 BKN030 PROB30 2302/2308
      4SM -SHSN BR BKN012=

USA.gov is the U.S. government's official web portal to all federal, state and local government web resources and services.